Time;durP1;ratioP1;P1;durP2;ratioP2;P2;SDS_P1;SDS_P2;PMS_P1;PMS_P2;Temp;Humidity;BMP_temperature;BMP_pressure;BME280_temperature;BME280_humidity;BME280_pressure;Samples;Min_cycle;Max_cycle;Signal;HPM_P1;HPM_P2
2023/03/18 00:01:50;;;;;;;;;4.00;4.00;;;;;20.41;46.95;101050.95;110022;1253;19682;-38
2023/03/18 00:04:18;;;;;;;;;2.00;2.00;;;;;20.40;46.93;101048.15;110033;1250;20119;-38
2023/03/18 00:06:45;;;;;;;;;3.00;3.00;;;;;20.40;46.68;101048.66;110020;1255;20280;-39
2023/03/18 00:09:13;;;;;;;;;4.00;4.00;;;;;20.40;46.73;101049.98;109954;1266;22853;-38
2023/03/18 00:11:40;;;;;;;;;4.00;4.00;;;;;20.39;46.93;101046.08;109957;1254;18655;-38
2023/03/18 00:14:08;;;;;;;;;2.50;2.50;;;;;20.40;46.99;101046.34;109929;1251;19392;-39
2023/03/18 00:16:36;;;;;;;;;4.00;2.00;;;;;20.41;46.85;101047.34;109958;1266;19553;-38
2023/03/18 00:19:04;;;;;;;;;2.00;2.00;;;;;20.41;46.88;101046.07;110063;1259;18629;-39
2023/03/18 00:21:31;;;;;;;;;2.00;2.00;;;;;20.41;46.81;101046.07;110021;1254;20740;-37
2023/03/18 00:23:59;;;;;;;;;2.00;2.00;;;;;20.42;46.94;101051.39;110034;1266;19888;-38
2023/03/18 00:26:27;;;;;;;;;4.00;4.00;;;;;20.41;46.80;101051.19;110049;1266;18968;-38
2023/03/18 00:28:54;;;;;;;;;2.00;2.00;;;;;20.41;46.90;101047.30;110077;1266;19768;-38
2023/03/18 00:31:22;;;;;;;;;2.00;2.00;;;;;20.40;46.77;101044.83;110014;1253;19643;-39
2023/03/18 00:33:49;;;;;;;;;2.00;2.00;;;;;20.40;46.93;101046.27;110029;1266;20019;-38
2023/03/18 00:36:17;;;;;;;;;4.00;4.00;;;;;20.41;46.89;101040.42;110010;1253;20744;-39
2023/03/18 00:38:44;;;;;;;;;4.00;4.00;;;;;20.39;46.88;101034.61;109970;1266;22900;-38
2023/03/18 00:41:14;;;;;;;;;5.00;5.00;;;;;20.39;46.92;101025.16;109939;1266;22727;-40
2023/03/18 00:43:48;;;;;;;;;4.00;4.00;;;;;20.39;46.88;101017.92;110040;1253;22422;-37
2023/03/18 00:46:16;;;;;;;;;4.00;4.00;;;;;20.40;46.72;101011.48;110066;1254;20000;-37
2023/03/18 00:48:44;;;;;;;;;5.00;4.00;;;;;20.40;46.76;101012.23;110053;1266;20023;-38
2023/03/18 00:51:13;;;;;;;;;4.00;4.00;;;;;20.39;46.72;101009.34;110028;1253;20928;-38
2023/03/18 00:53:40;;;;;;;;;3.33;3.33;;;;;20.40;46.97;101004.21;110027;1266;18376;-38
2023/03/18 00:56:08;;;;;;;;;4.00;4.00;;;;;20.40;46.78;101000.06;110022;1266;20010;-38
2023/03/18 00:58:36;;;;;;;;;4.00;4.00;;;;;20.40;46.84;101000.77;110042;1266;19353;-38
2023/03/18 01:01:04;;;;;;;;;2.00;2.00;;;;;20.39;46.92;100999.27;110029;1266;20671;-38
2023/03/18 01:03:32;;;;;;;;;5.00;4.00;;;;;20.39;46.79;100998.70;110002;1266;18664;-38
2023/03/18 01:06:01;;;;;;;;;3.00;3.00;;;;;20.38;46.79;101000.80;110058;1266;22732;-38
2023/03/18 01:08:29;;;;;;;;;4.00;2.00;;;;;20.37;46.56;100988.73;110049;1266;22101;-38
2023/03/18 01:10:56;;;;;;;;;3.33;2.00;;;;;20.39;46.73;100988.38;110075;1266;18542;-39
2023/03/18 01:13:24;;;;;;;;;4.00;4.00;;;;;20.39;46.78;100985.45;110040;1254;20733;-39
2023/03/18 01:15:52;;;;;;;;;3.00;2.00;;;;;20.39;46.72;100984.51;110024;1266;22547;-39
2023/03/18 01:18:19;;;;;;;;;2.50;2.50;;;;;20.39;46.82;100979.26;110029;1266;21585;-40
2023/03/18 01:20:47;;;;;;;;;2.00;2.00;;;;;20.39;46.68;100977.63;110031;1266;20827;-39
2023/03/18 01:23:14;;;;;;;;;2.00;2.00;;;;;20.39;46.63;100978.91;110027;1266;22444;-39
2023/03/18 01:25:43;;;;;;;;;4.00;2.00;;;;;20.38;46.68;100978.61;109930;1266;19958;-41
2023/03/18 01:28:11;;;;;;;;;3.00;3.00;;;;;20.39;46.87;100971.33;110027;1254;20875;-38
2023/03/18 01:30:38;;;;;;;;;2.67;2.67;;;;;20.39;46.84;100972.37;110036;1253;19674;-39
2023/03/18 01:33:06;;;;;;;;;4.50;3.00;;;;;20.39;46.72;100971.00;110033;1266;18633;-38
2023/03/18 01:35:34;;;;;;;;;5.00;4.00;;;;;20.39;46.77;100974.21;109903;1254;20809;-38
2023/03/18 01:38:03;;;;;;;;;4.00;4.00;;;;;20.38;46.84;100969.89;109936;1266;22235;-39
2023/03/18 01:40:30;;;;;;;;;2.50;2.00;;;;;20.39;46.70;100970.08;109954;1266;23454;-38
2023/03/18 01:42:58;;;;;;;;;3.00;3.00;;;;;20.39;46.84;100972.25;109970;1250;19371;-38
2023/03/18 01:45:27;;;;;;;;;3.00;2.00;;;;;20.39;46.59;100974.60;110068;1250;22229;-38
2023/03/18 01:47:54;;;;;;;;;4.00;4.00;;;;;20.38;46.81;100972.70;110061;1266;22628;-39
2023/03/18 01:50:22;;;;;;;;;3.00;3.00;;;;;20.39;46.81;100976.00;110063;1266;20763;-38
2023/03/18 01:52:49;;;;;;;;;1.50;1.50;;;;;20.38;46.70;100976.81;110035;1266;19599;-38
2023/03/18 01:55:18;;;;;;;;;4.00;4.00;;;;;20.38;46.82;100974.83;110016;1250;22162;-39
2023/03/18 01:57:45;;;;;;;;;2.00;2.00;;;;;20.38;46.67;100973.91;110003;1251;20549;-39
2023/03/18 02:00:15;;;;;;;;;4.50;4.00;;;;;20.37;46.74;100970.61;110011;1266;19887;-39
2023/03/18 02:02:42;;;;;;;;;2.00;2.00;;;;;20.38;46.78;100967.75;110105;1266;22726;-39
2023/03/18 02:05:11;;;;;;;;;4.00;2.00;;;;;20.37;46.64;100965.55;109935;1250;20535;-40
2023/03/18 02:07:39;;;;;;;;;2.00;2.00;;;;;20.37;46.74;100964.80;110039;1266;21692;-39
2023/03/18 02:10:09;;;;;;;;;2.00;2.00;;;;;20.38;46.79;100971.42;110030;1266;20007;-39
2023/03/18 02:12:37;;;;;;;;;2.00;2.00;;;;;20.38;46.68;100976.33;110021;1250;20811;-40
2023/03/18 02:15:04;;;;;;;;;4.00;4.00;;;;;20.37;46.72;100980.80;109931;1250;19674;-37
2023/03/18 02:17:32;;;;;;;;;4.00;2.00;;;;;20.38;46.75;100986.13;109961;1266;21938;-37
2023/03/18 02:19:59;;;;;;;;;1.50;1.50;;;;;20.38;46.85;100985.21;110039;1250;20678;-38
2023/03/18 02:22:27;;;;;;;;;3.00;3.00;;;;;20.37;46.77;100977.52;110027;1253;19685;-38
2023/03/18 02:24:54;;;;;;;;;3.00;3.00;;;;;20.36;46.73;100974.49;110023;1254;19974;-39
2023/03/18 02:27:22;;;;;;;;;4.00;2.00;;;;;20.37;46.70;100972.76;109889;1266;19372;-40
2023/03/18 02:29:50;;;;;;;;;2.50;2.50;;;;;20.37;46.88;100973.54;110030;1253;20184;-37
2023/03/18 02:32:17;;;;;;;;;2.00;2.00;;;;;20.36;46.77;100975.95;110056;1266;20122;-40
2023/03/18 02:34:45;;;;;;;;;3.00;3.00;;;;;20.37;46.75;100977.69;109884;1250;20919;-39
2023/03/18 02:37:12;;;;;;;;;2.00;2.00;;;;;20.37;46.75;100970.30;110014;1266;21600;-39
2023/03/18 02:39:40;;;;;;;;;2.00;2.00;;;;;20.36;46.73;100968.67;109969;1266;20011;-38
2023/03/18 02:42:08;;;;;;;;;2.00;2.00;;;;;20.36;46.63;100971.09;109937;1266;20912;-38
2023/03/18 02:44:36;;;;;;;;;2.00;2.00;;;;;20.36;46.92;100969.46;109900;1266;22438;-37
2023/03/18 02:47:03;;;;;;;;;4.00;4.00;;;;;20.37;46.71;100973.55;109944;1266;18739;-39
2023/03/18 02:49:31;;;;;;;;;2.00;2.00;;;;;20.37;46.72;100979.36;109994;1250;21586;-39
2023/03/18 02:51:59;;;;;;;;;4.00;2.00;;;;;20.37;46.59;100979.57;109945;1266;19708;-37
2023/03/18 02:54:26;;;;;;;;;2.00;2.00;;;;;20.36;46.75;100981.40;109938;1250;20945;-39
2023/03/18 02:56:54;;;;;;;;;2.00;2.00;;;;;20.37;46.82;100988.00;109961;1250;20833;-40
2023/03/18 02:59:21;;;;;;;;;4.00;4.00;;;;;20.36;46.62;100983.48;110033;1266;19702;-40
2023/03/18 03:01:49;;;;;;;;;2.00;2.00;;;;;20.35;46.83;100984.94;110048;1266;19994;-38
2023/03/18 03:04:16;;;;;;;;;2.00;2.00;;;;;20.36;46.65;100987.64;110059;1266;19689;-37
2023/03/18 03:06:43;;;;;;;;;2.00;2.00;;;;;20.36;46.79;100986.13;110015;1254;20201;-38
2023/03/18 03:09:12;;;;;;;;;1.00;1.00;;;;;20.36;46.66;100986.89;110029;1250;20548;-39
2023/03/18 03:11:39;;;;;;;;;2.00;2.00;;;;;20.36;46.77;100983.30;110039;1266;20943;-39
2023/03/18 03:14:07;;;;;;;;;2.00;2.00;;;;;20.35;46.72;100986.08;110014;1266;19807;-39
2023/03/18 03:16:35;;;;;;;;;2.00;2.00;;;;;20.36;46.56;100985.62;109976;1266;19994;-38
2023/03/18 03:19:03;;;;;;;;;3.00;3.00;;;;;20.35;46.75;100986.27;109975;1251;20905;-38
2023/03/18 03:21:31;;;;;;;;;2.00;2.00;;;;;20.36;46.62;100987.08;110045;1254;19670;-38
2023/03/18 03:23:58;;;;;;;;;2.00;2.00;;;;;20.34;46.67;100985.96;109997;1266;21759;-39
2023/03/18 03:26:26;;;;;;;;;2.00;2.00;;;;;20.35;46.71;100985.59;110064;1253;20960;-39
2023/03/18 03:28:53;;;;;;;;;3.00;2.00;;;;;20.35;46.55;100987.73;110030;1260;19716;-39
2023/03/18 03:31:21;;;;;;;;;2.50;2.50;;;;;20.35;46.63;100983.55;109995;1253;21439;-39
2023/03/18 03:33:48;;;;;;;;;4.00;3.00;;;;;20.35;46.65;100982.11;110017;1266;22814;-39
2023/03/18 03:36:16;;;;;;;;;2.00;2.00;;;;;20.34;46.60;100980.52;110064;1266;18265;-37
2023/03/18 03:38:44;;;;;;;;;3.00;3.00;;;;;20.35;46.61;100983.93;110032;1252;20028;-37
2023/03/18 03:41:11;;;;;;;;;2.00;2.00;;;;;20.35;46.68;100977.40;110071;1266;19404;-38
2023/03/18 03:43:39;;;;;;;;;2.33;2.00;;;;;20.34;46.58;100972.22;110082;1254;19991;-40
2023/03/18 03:46:06;;;;;;;;;2.50;2.50;;;;;20.34;46.59;100971.27;110051;1266;18947;-37
2023/03/18 03:48:34;;;;;;;;;1.00;1.00;;;;;20.34;46.74;100971.81;110043;1250;19373;-38
2023/03/18 03:51:01;;;;;;;;;2.00;2.00;;;;;20.34;46.72;100969.33;110058;1259;20829;-38
2023/03/18 03:53:29;;;;;;;;;1.00;1.00;;;;;20.34;46.60;100971.46;110030;1252;20106;-38
2023/03/18 03:55:56;;;;;;;;;3.00;3.00;;;;;20.34;46.59;100972.94;110019;1266;19607;-37
2023/03/18 03:58:23;;;;;;;;;4.00;4.00;;;;;20.34;46.42;100966.09;110015;1251;22931;-38
2023/03/18 04:00:51;;;;;;;;;2.00;2.00;;;;;20.34;46.68;100966.29;110044;1259;18625;-38
2023/03/18 04:03:18;;;;;;;;;2.00;2.00;;;;;20.34;46.66;100966.60;109932;1250;20892;-38
2023/03/18 04:05:46;;;;;;;;;4.00;2.00;;;;;20.34;46.65;100976.54;110075;1266;18341;-38
2023/03/18 04:08:13;;;;;;;;;2.00;2.00;;;;;20.34;46.65;100975.66;109995;1266;19975;-38
2023/03/18 04:10:41;;;;;;;;;2.00;2.00;;;;;20.33;46.73;100975.01;110031;1265;19368;-39
2023/03/18 04:13:09;;;;;;;;;2.00;2.00;;;;;20.32;46.74;100970.04;110061;1254;19638;-39
2023/03/18 04:15:36;;;;;;;;;4.00;4.00;;;;;20.33;46.77;100962.91;109939;1266;20046;-37
2023/03/18 04:18:05;;;;;;;;;2.00;2.00;;;;;20.33;46.66;100959.77;109969;1266;20791;-38
2023/03/18 04:20:34;;;;;;;;;2.00;2.00;;;;;20.33;46.71;100952.51;110068;1266;19517;-39
2023/03/18 04:23:01;;;;;;;;;5.00;4.00;;;;;20.33;46.66;100956.89;110040;1253;20111;-40
2023/03/18 04:25:29;;;;;;;;;3.00;3.00;;;;;20.34;46.81;100961.56;110042;1266;19235;-39
2023/03/18 04:27:57;;;;;;;;;3.00;3.00;;;;;20.33;46.47;100960.54;110020;1266;18390;-39
2023/03/18 04:30:25;;;;;;;;;2.00;2.00;;;;;20.32;46.69;100959.85;110032;1266;20001;-39
2023/03/18 04:32:53;;;;;;;;;6.00;4.00;;;;;20.33;46.71;100961.62;110041;1266;22879;-39
2023/03/18 04:35:22;;;;;;;;;3.00;3.00;;;;;20.32;46.83;100958.66;110026;1266;22473;-39
2023/03/18 04:37:49;;;;;;;;;3.00;3.00;;;;;20.32;46.60;100958.11;110044;1253;20368;-39
2023/03/18 04:40:17;;;;;;;;;2.00;2.00;;;;;20.33;46.69;100957.23;110057;1253;20843;-39
2023/03/18 04:42:46;;;;;;;;;3.50;2.00;;;;;20.32;46.59;100958.05;110010;1251;18374;-39
2023/03/18 04:45:14;;;;;;;;;3.00;2.00;;;;;20.33;46.77;100954.57;110048;1266;19292;-38
2023/03/18 04:47:41;;;;;;;;;4.00;4.00;;;;;20.33;46.59;100960.36;110033;1250;22848;-39
2023/03/18 04:50:11;;;;;;;;;1.00;1.00;;;;;20.32;46.57;100959.30;110049;1253;19741;-39
2023/03/18 04:52:38;;;;;;;;;3.00;3.00;;;;;20.32;46.57;100963.56;110045;1266;19885;-39
2023/03/18 04:55:06;;;;;;;;;2.00;2.00;;;;;20.33;46.76;100961.80;110051;1254;21012;-39
2023/03/18 04:57:36;;;;;;;;;2.00;2.00;;;;;20.32;46.75;100960.59;110034;1266;22561;-39
2023/03/18 05:00:04;;;;;;;;;2.00;2.00;;;;;20.32;46.62;100961.19;110024;1266;18766;-39
2023/03/18 05:02:32;;;;;;;;;2.00;2.00;;;;;20.32;46.54;100960.27;110072;1266;19395;-39
2023/03/18 05:05:00;;;;;;;;;3.00;3.00;;;;;20.34;46.45;100961.92;110032;1266;21116;-38
2023/03/18 05:07:28;;;;;;;;;3.00;3.00;;;;;20.33;46.60;100964.38;109893;1266;20156;-38
2023/03/18 05:09:55;;;;;;;;;2.00;2.00;;;;;20.33;46.73;100969.11;109966;1266;20825;-38
2023/03/18 05:12:24;;;;;;;;;2.00;2.00;;;;;20.32;46.64;100971.86;110002;1266;18448;-38
2023/03/18 05:14:52;;;;;;;;;3.00;3.00;;;;;20.32;46.67;100968.39;110021;1266;20023;-39
2023/03/18 05:17:20;;;;;;;;;2.00;2.00;;;;;20.32;46.68;100966.46;110046;1250;20858;-39
2023/03/18 05:19:47;;;;;;;;;5.00;5.00;;;;;20.33;46.93;100964.38;109979;1253;19934;-39
2023/03/18 05:22:15;;;;;;;;;2.00;2.00;;;;;20.31;46.63;100965.43;110034;1266;18613;-39
2023/03/18 05:24:44;;;;;;;;;3.00;3.00;;;;;20.32;46.69;100968.80;110024;1250;21152;-39
2023/03/18 05:27:12;;;;;;;;;2.00;2.00;;;;;20.31;46.60;100970.58;110034;1253;20066;-39
2023/03/18 05:29:40;;;;;;;;;2.00;2.00;;;;;20.32;46.57;100978.02;110012;1266;18824;-39
2023/03/18 05:32:08;;;;;;;;;1.67;1.67;;;;;20.33;46.74;100978.16;110005;1266;22200;-39
2023/03/18 05:34:36;;;;;;;;;3.00;3.00;;;;;20.33;46.63;100973.95;110019;1251;19883;-39
2023/03/18 05:37:03;;;;;;;;;2.00;2.00;;;;;20.32;46.63;100964.48;110047;1266;18596;-40
2023/03/18 05:39:32;;;;;;;;;3.50;3.50;;;;;20.32;46.64;100963.86;110032;1254;20715;-39
2023/03/18 05:41:59;;;;;;;;;3.00;3.00;;;;;20.33;46.46;100967.11;110047;1266;20152;-39
2023/03/18 05:44:27;;;;;;;;;3.33;3.33;;;;;20.33;46.43;100966.84;110029;1266;19964;-40
2023/03/18 05:46:54;;;;;;;;;2.00;2.00;;;;;20.33;46.56;100967.06;110040;1266;19508;-39
2023/03/18 05:49:22;;;;;;;;;4.00;3.00;;;;;20.34;46.23;100966.73;110009;1266;22248;-41
2023/03/18 05:51:50;;;;;;;;;1.50;1.50;;;;;20.37;46.49;100972.46;110033;1266;18652;-39
2023/03/18 05:54:18;;;;;;;;;3.00;3.00;;;;;20.40;46.36;100972.53;110018;1266;19473;-40
2023/03/18 05:56:45;;;;;;;;;2.00;2.00;;;;;20.43;46.72;100970.14;110052;1250;20847;-40
2023/03/18 05:59:13;;;;;;;;;2.00;2.00;;;;;20.44;46.68;100960.41;110050;1266;18579;-40
2023/03/18 06:01:40;;;;;;;;;4.00;4.00;;;;;20.43;46.97;100955.40;110049;1250;19354;-38
2023/03/18 06:04:09;;;;;;;;;4.00;4.00;;;;;20.43;46.81;100953.09;109967;1266;19539;-39
2023/03/18 06:06:39;;;;;;;;;2.00;2.00;;;;;20.43;46.93;100949.83;110003;1266;18511;-38
2023/03/18 06:09:07;;;;;;;;;2.00;2.00;;;;;20.42;47.00;100951.39;110045;1250;22194;-38
2023/03/18 06:11:34;;;;;;;;;2.00;2.00;;;;;20.40;47.36;100942.48;110017;1266;19619;-38
2023/03/18 06:14:02;;;;;;;;;2.00;1.00;;;;;20.41;47.12;100947.99;110014;1254;20190;-39
2023/03/18 06:16:29;;;;;;;;;2.00;2.00;;;;;20.41;47.22;100936.94;110021;1266;22937;-38
2023/03/18 06:18:57;;;;;;;;;4.00;3.00;;;;;20.41;47.48;100934.01;110021;1266;18475;-38
2023/03/18 06:21:25;;;;;;;;;4.00;2.00;;;;;20.42;47.42;100930.09;110022;1254;22738;-38
2023/03/18 06:23:53;;;;;;;;;2.00;2.00;;;;;20.42;47.33;100927.61;110015;1250;20757;-38
2023/03/18 06:26:21;;;;;;;;;2.00;2.00;;;;;20.43;47.12;100928.96;110019;1266;19682;-39
2023/03/18 06:28:48;;;;;;;;;2.00;2.00;;;;;20.42;47.24;100928.48;109984;1266;18676;-44
2023/03/18 06:31:16;;;;;;;;;2.00;2.00;;;;;20.43;47.15;100928.25;109898;1266;22661;-38
2023/03/18 06:33:43;;;;;;;;;5.00;4.00;;;;;20.43;47.28;100930.73;109842;1266;19966;-38
2023/03/18 06:36:11;;;;;;;;;2.00;2.00;;;;;20.43;47.11;100926.75;109958;1266;18654;-39
2023/03/18 06:38:39;;;;;;;;;2.00;2.00;;;;;20.43;47.07;100925.08;110026;1253;20994;-38
2023/03/18 06:41:07;;;;;;;;;2.00;2.00;;;;;20.43;47.17;100922.23;110041;1250;19596;-38
2023/03/18 06:43:35;;;;;;;;;2.00;2.00;;;;;20.42;47.28;100924.55;110004;1266;21253;-39
2023/03/18 06:46:03;;;;;;;;;2.00;2.00;;;;;20.43;47.18;100928.58;110050;1253;21966;-38
2023/03/18 06:48:31;;;;;;;;;2.00;1.00;;;;;20.42;47.12;100928.45;110030;1260;22386;-38
2023/03/18 06:50:59;;;;;;;;;2.00;2.00;;;;;20.43;47.07;100934.55;110014;1266;22232;-38
2023/03/18 06:53:28;;;;;;;;;2.00;2.00;;;;;20.45;46.92;100929.25;110055;1266;19293;-38
2023/03/18 06:55:56;;;;;;;;;4.00;4.00;;;;;20.44;47.03;100932.58;110072;1250;20790;-41
2023/03/18 06:58:24;;;;;;;;;4.00;2.00;;;;;20.44;46.97;100930.59;110020;1254;20060;-38
2023/03/18 07:00:52;;;;;;;;;2.00;2.00;;;;;20.47;47.06;100937.28;110037;1250;19547;-39
2023/03/18 07:03:20;;;;;;;;;1.00;1.00;;;;;20.47;47.09;100939.80;110026;1250;22296;-39
2023/03/18 07:05:48;;;;;;;;;2.00;2.00;;;;;20.44;47.24;100938.13;110038;1266;22710;-39
2023/03/18 07:08:15;;;;;;;;;2.00;2.00;;;;;20.45;47.20;100946.38;110051;1253;21215;-39
2023/03/18 07:10:43;;;;;;;;;1.50;1.00;;;;;20.44;46.97;100948.27;110016;1266;18454;-39
2023/03/18 07:13:12;;;;;;;;;4.00;4.00;;;;;20.45;46.96;100949.88;110057;1254;19992;-37
2023/03/18 07:15:39;;;;;;;;;2.00;2.00;;;;;20.49;47.24;100951.90;110026;1254;20787;-40
2023/03/18 07:18:07;;;;;;;;;1.50;1.50;;;;;20.47;47.01;100950.41;110034;1266;19754;-39
2023/03/18 07:20:35;;;;;;;;;2.00;2.00;;;;;20.49;47.08;100950.57;110024;1266;18848;-38
2023/03/18 07:23:03;;;;;;;;;5.00;2.00;;;;;20.50;47.33;100949.58;110031;1266;19797;-38
2023/03/18 07:25:31;;;;;;;;;34.00;31.00;;;;;20.51;47.06;100950.89;110035;1266;22862;-38
2023/03/18 07:27:59;;;;;;;;;72.00;52.00;;;;;20.53;47.22;100956.47;110012;1266;22328;-39
2023/03/18 07:30:27;;;;;;;;;43.00;37.50;;;;;20.54;47.57;100957.11;109980;1266;22235;-39
2023/03/18 07:32:55;;;;;;;;;62.00;43.00;;;;;20.56;47.83;100954.39;109952;1266;21940;-39
2023/03/18 07:35:23;;;;;;;;;49.00;40.00;;;;;20.62;47.84;100950.98;109996;1266;18714;-39
2023/03/18 07:37:50;;;;;;;;;48.00;38.00;;;;;20.66;48.30;100956.91;110008;1258;23184;-39
2023/03/18 07:40:17;;;;;;;;;37.00;31.50;;;;;20.71;48.70;100952.02;110024;1266;18723;-40
2023/03/18 07:42:45;;;;;;;;;35.00;32.00;;;;;20.78;48.63;100959.55;110021;1266;22170;-39
2023/03/18 07:45:12;;;;;;;;;30.50;28.00;;;;;20.78;48.37;100958.77;110014;1266;20722;-39
2023/03/18 07:47:40;;;;;;;;;28.00;25.00;;;;;20.78;47.83;100955.13;110023;1266;18774;-40
2023/03/18 07:50:07;;;;;;;;;23.00;20.00;;;;;20.83;48.19;100965.03;110022;1266;20426;-39
2023/03/18 07:52:36;;;;;;;;;19.67;19.00;;;;;20.90;48.43;100972.34;109933;1254;20821;-40
2023/03/18 07:55:04;;;;;;;;;19.33;16.00;;;;;20.96;48.79;100980.65;110033;1266;19986;-40
2023/03/18 07:57:31;;;;;;;;;16.50;13.50;;;;;20.98;49.00;100981.63;110027;1253;20137;-39
2023/03/18 07:59:58;;;;;;;;;14.00;13.00;;;;;21.01;49.01;100986.36;110019;1266;20740;-40
2023/03/18 08:02:27;;;;;;;;;15.33;14.00;;;;;21.04;49.51;100988.20;110004;1266;22022;-41
2023/03/18 08:04:55;;;;;;;;;11.00;10.00;;;;;21.04;49.82;100990.75;110067;1266;20059;-40
2023/03/18 08:07:23;;;;;;;;;13.50;12.00;;;;;21.04;50.37;100992.17;110015;1266;20575;-39
2023/03/18 08:09:50;;;;;;;;;10.00;10.00;;;;;21.06;50.40;100991.23;109954;1266;22409;-39
2023/03/18 08:12:18;;;;;;;;;14.00;13.00;;;;;21.07;50.47;100981.17;110011;1266;18713;-40
2023/03/18 08:14:47;;;;;;;;;8.00;8.00;;;;;21.14;50.44;100982.75;110043;1266;19536;-39
2023/03/18 08:17:14;;;;;;;;;10.00;8.00;;;;;21.18;50.27;100978.67;109912;1250;22013;-41
2023/03/18 08:19:42;;;;;;;;;8.00;8.00;;;;;21.19;50.40;100977.10;109948;1266;20159;-39
2023/03/18 08:22:10;;;;;;;;;7.00;7.00;;;;;21.19;50.08;100981.66;110024;1266;19350;-39
2023/03/18 08:24:38;;;;;;;;;7.00;7.00;;;;;21.20;50.03;100973.86;110110;1250;18385;-39
2023/03/18 08:27:05;;;;;;;;;8.00;8.00;;;;;21.21;50.07;100981.20;109767;1250;394226;-39
2023/03/18 08:29:32;;;;;;;;;11.00;8.00;;;;;21.24;50.22;100983.95;110029;1254;20792;-40
2023/03/18 08:32:00;;;;;;;;;8.00;7.00;;;;;21.25;50.15;100978.89;110006;1251;19001;-39
2023/03/18 08:34:28;;;;;;;;;8.00;7.67;;;;;21.29;49.88;100974.36;110039;1266;19927;-39
2023/03/18 08:36:56;;;;;;;;;14.00;11.00;;;;;21.31;50.03;100973.17;110048;1266;19088;-40
2023/03/18 08:39:23;;;;;;;;;18.00;17.00;;;;;21.27;49.57;100968.89;109934;1266;19600;-40
2023/03/18 08:41:51;;;;;;;;;26.00;24.00;;;;;21.18;48.55;100972.13;109992;1266;18828;-44
2023/03/18 08:44:18;;;;;;;;;25.00;23.00;;;;;21.02;46.47;100968.79;109999;1260;19561;-40
2023/03/18 08:46:46;;;;;;;;;23.50;21.00;;;;;20.96;44.99;100970.09;110027;1266;18677;-40
2023/03/18 08:49:14;;;;;;;;;22.50;19.50;;;;;20.93;43.95;100966.23;110025;1266;20076;-40
2023/03/18 08:51:42;;;;;;;;;25.00;20.00;;;;;20.87;42.54;100966.15;110063;1266;19389;-41
2023/03/18 08:54:09;;;;;;;;;25.00;19.00;;;;;20.79;41.31;100962.92;110051;1266;18634;-39
2023/03/18 08:56:37;;;;;;;;;19.00;17.00;;;;;20.67;40.28;100964.10;110027;1252;20306;-40
2023/03/18 08:59:04;;;;;;;;;20.50;18.50;;;;;20.76;40.57;100966.50;110035;1259;22241;-39
2023/03/18 09:01:31;;;;;;;;;34.50;24.50;;;;;20.87;41.08;100968.75;110004;1266;19962;-40
2023/03/18 09:03:59;;;;;;;;;30.00;25.00;;;;;20.93;42.03;100966.34;110047;1250;18762;-39
2023/03/18 09:06:27;;;;;;;;;35.00;31.00;;;;;20.98;42.11;100967.45;110001;1260;24126;-39
2023/03/18 09:08:55;;;;;;;;;40.00;32.00;;;;;21.02;42.88;100961.02;110002;1266;18579;-39
2023/03/18 09:11:22;;;;;;;;;42.00;34.00;;;;;21.06;43.17;100962.38;110012;1266;18726;-40
2023/03/18 09:13:51;;;;;;;;;31.00;25.00;;;;;21.10;43.84;100967.38;109992;1266;19317;-39
2023/03/18 09:16:18;;;;;;;;;23.67;21.33;;;;;21.13;44.09;100965.98;109941;1250;22635;-40
2023/03/18 09:18:45;;;;;;;;;25.00;22.00;;;;;21.10;43.61;100956.84;110001;1266;20000;-38
2023/03/18 09:21:13;;;;;;;;;19.33;19.00;;;;;21.11;43.64;100962.52;110022;1250;19368;-38
2023/03/18 09:23:42;;;;;;;;;17.00;17.00;;;;;21.11;44.09;100957.70;110036;1266;20073;-38
2023/03/18 09:26:10;;;;;;;;;20.00;19.50;;;;;21.11;44.06;100955.48;110025;1266;20079;-38
2023/03/18 09:28:37;;;;;;;;;23.00;22.00;;;;;21.11;44.08;100958.00;109998;1253;22723;-39
2023/03/18 09:31:05;;;;;;;;;19.00;14.00;;;;;21.13;44.32;100955.20;109993;1250;20163;-38
2023/03/18 09:33:32;;;;;;;;;16.50;14.00;;;;;21.13;44.75;100953.95;110035;1250;20197;-38
2023/03/18 09:36:00;;;;;;;;;19.00;14.00;;;;;21.14;45.01;100954.59;110051;1250;20095;-39
2023/03/18 09:38:27;;;;;;;;;15.00;14.00;;;;;21.15;45.03;100949.92;110024;1266;22191;-39
2023/03/18 09:40:55;;;;;;;;;17.00;12.33;;;;;21.14;45.14;100946.95;109914;1266;18965;-39
2023/03/18 09:43:22;;;;;;;;;15.00;12.00;;;;;21.13;45.35;100944.21;110033;1266;19627;-39
2023/03/18 09:45:50;;;;;;;;;11.00;11.00;;;;;21.11;45.19;100942.61;110035;1261;18594;-39
2023/03/18 09:48:17;;;;;;;;;16.00;13.00;;;;;21.09;45.40;100936.75;109969;1266;21946;-39
2023/03/18 09:50:45;;;;;;;;;10.00;10.00;;;;;21.09;45.35;100937.83;110004;1261;20729;-39
2023/03/18 09:53:12;;;;;;;;;9.00;9.00;;;;;21.08;45.50;100936.55;110035;1266;20301;-40
2023/03/18 09:55:40;;;;;;;;;10.50;7.50;;;;;21.07;45.47;100931.91;109976;1266;20295;-38
2023/03/18 09:58:08;;;;;;;;;11.00;8.00;;;;;21.05;45.61;100925.04;109912;1253;20794;-39
2023/03/18 10:00:36;;;;;;;;;10.00;8.00;;;;;21.04;45.48;100928.92;109985;1266;20302;-38
2023/03/18 10:03:04;;;;;;;;;8.00;7.00;;;;;21.05;45.53;100929.25;110005;1266;22755;-38
2023/03/18 10:05:31;;;;;;;;;7.00;7.00;;;;;21.04;45.55;100930.93;109999;1250;20828;-41
2023/03/18 10:07:59;;;;;;;;;8.00;8.00;;;;;21.05;45.52;100930.14;110055;1266;19587;-38
2023/03/18 10:10:26;;;;;;;;;5.00;5.00;;;;;21.04;45.31;100926.60;110035;1266;22614;-39
2023/03/18 10:12:54;;;;;;;;;8.00;7.00;;;;;21.04;45.40;100927.66;110009;1266;20699;-40
2023/03/18 10:15:21;;;;;;;;;7.00;7.00;;;;;21.04;45.48;100923.71;110048;1260;19673;-40
2023/03/18 10:17:49;;;;;;;;;5.00;5.00;;;;;21.04;45.36;100923.88;110022;1266;22942;-39
2023/03/18 10:20:16;;;;;;;;;7.00;7.00;;;;;21.04;45.35;100923.36;110020;1250;22800;-39
2023/03/18 10:22:44;;;;;;;;;8.00;8.00;;;;;21.02;45.36;100911.17;110049;1254;21010;-38
2023/03/18 10:25:11;;;;;;;;;8.00;5.00;;;;;21.03;45.45;100910.39;110008;1266;19962;-39
2023/03/18 10:27:39;;;;;;;;;7.00;7.00;;;;;21.01;45.40;100906.55;110047;1253;20745;-39
2023/03/18 10:30:07;;;;;;;;;8.00;6.00;;;;;20.99;45.38;100908.43;110007;1266;18740;-39
2023/03/18 10:32:35;;;;;;;;;4.00;4.00;;;;;21.00;45.46;100907.86;110046;1266;19948;-38
2023/03/18 10:35:02;;;;;;;;;5.00;5.00;;;;;20.99;45.42;100904.14;110027;1266;22147;-40
2023/03/18 10:37:30;;;;;;;;;8.00;5.00;;;;;20.98;45.57;100898.96;110038;1250;22239;-39
2023/03/18 10:39:57;;;;;;;;;5.00;4.00;;;;;20.97;45.53;100901.59;110078;1266;19563;-40
2023/03/18 10:42:25;;;;;;;;;10.00;10.00;;;;;21.01;45.58;100899.95;110023;1250;21083;-40
2023/03/18 10:44:53;;;;;;;;;13.00;13.00;;;;;21.01;45.37;100901.75;109991;1250;21478;-41
2023/03/18 10:47:20;;;;;;;;;16.00;14.00;;;;;20.90;44.08;100904.94;110068;1266;22799;-40
2023/03/18 10:49:49;;;;;;;;;16.00;13.50;;;;;20.85;43.26;100904.10;110032;1260;20789;-40
2023/03/18 10:52:17;;;;;;;;;17.00;16.00;;;;;20.79;42.70;100903.45;110054;1266;18597;-41
2023/03/18 10:54:45;;;;;;;;;13.50;13.50;;;;;20.78;42.18;100904.86;110062;1260;18869;-42
2023/03/18 10:57:13;;;;;;;;;13.00;11.00;;;;;20.74;41.65;100897.00;110085;1250;21173;-40
2023/03/18 10:59:43;;;;;;;;;10.00;10.00;;;;;20.77;41.78;100897.34;110030;1266;22759;-39
2023/03/18 11:02:10;;;;;;;;;9.00;9.00;;;;;20.81;41.92;100897.80;110027;1259;23297;-39
2023/03/18 11:04:38;;;;;;;;;8.00;8.00;;;;;20.87;42.37;100903.02;110041;1266;19443;-39
2023/03/18 11:07:05;;;;;;;;;8.00;8.00;;;;;20.90;42.58;100892.03;110014;1266;19675;-39
2023/03/18 11:09:34;;;;;;;;;7.00;7.00;;;;;20.95;42.94;100890.66;109979;1266;18986;-39
2023/03/18 11:12:04;;;;;;;;;7.00;7.00;;;;;20.96;43.19;100887.97;109966;1266;21399;-39
2023/03/18 11:14:31;;;;;;;;;9.00;8.00;;;;;20.97;43.49;100887.95;110010;1252;19855;-38
2023/03/18 11:16:59;;;;;;;;;11.00;10.00;;;;;21.05;44.04;100885.27;109949;1251;21539;-39